createdAt,value
2019-02-19T00:03:16.347Z,-1.19
2019-02-19T00:08:20.389Z,-1.19
2019-02-19T00:13:24.577Z,-1.23
2019-02-19T00:18:28.660Z,-1.20
2019-02-19T00:23:39.983Z,-1.15
2019-02-19T00:28:44.098Z,-1.19
2019-02-19T00:33:48.223Z,-0.90
2019-02-19T00:38:52.297Z,-0.91
2019-02-19T00:44:07.671Z,-0.83
2019-02-19T00:49:13.570Z,-0.78
2019-02-19T00:54:23.571Z,-0.91
2019-02-19T00:59:27.641Z,-0.86
2019-02-19T01:20:24.077Z,-0.81
2019-02-19T01:25:28.121Z,-0.94
2019-02-19T01:30:32.204Z,-1.10
2019-02-19T01:35:36.323Z,-1.15
2019-02-19T01:40:40.491Z,-1.31
2019-02-19T01:45:44.592Z,-1.39
2019-02-19T01:51:07.843Z,-1.52
2019-02-19T01:56:12.251Z,-1.51
2019-02-19T02:01:16.324Z,-1.32
2019-02-19T02:06:20.493Z,-1.37
2019-02-19T02:11:24.583Z,-1.19
2019-02-19T02:16:28.725Z,-1.33
2019-02-19T02:21:38.639Z,-1.38
2019-02-19T02:26:42.785Z,-1.38
2019-02-19T02:31:47.691Z,-1.35
2019-02-19T02:36:52.179Z,-1.33
2019-02-19T02:42:01.896Z,-1.40
2019-02-19T02:47:06.320Z,-1.33
2019-02-19T02:52:10.413Z,-1.38
2019-02-19T02:57:14.466Z,-1.51
2019-02-19T03:02:18.521Z,-1.64
2019-02-19T03:07:23.071Z,-1.66
2019-02-19T03:12:27.841Z,-1.69
2019-02-19T03:17:32.376Z,-1.57
2019-02-19T03:27:54.862Z,-1.66
2019-02-19T03:32:59.028Z,-1.60
2019-02-19T03:38:03.077Z,-1.64
2019-02-19T03:43:07.139Z,-1.51
2019-02-19T03:48:11.255Z,-1.52
2019-02-19T03:53:15.425Z,-1.61
2019-02-19T03:58:19.815Z,-1.58
2019-02-19T04:03:24.141Z,-1.55
2019-02-19T04:08:28.245Z,-1.51
2019-02-19T04:13:32.317Z,-1.47
2019-02-19T04:18:36.397Z,-1.35
2019-02-19T04:23:40.504Z,-1.27
2019-02-19T04:28:44.576Z,-1.06
2019-02-19T04:33:48.998Z,-0.86
2019-02-19T04:38:58.710Z,-0.77
2019-02-19T04:44:02.794Z,-0.69
2019-02-19T04:49:06.871Z,-0.61
2019-02-19T04:54:17.418Z,-0.47
2019-02-19T04:59:21.552Z,-0.38
2019-02-19T05:04:25.649Z,-0.52
2019-02-19T05:09:29.771Z,-0.67
2019-02-19T05:14:33.793Z,-0.64
2019-02-19T05:19:37.897Z,-0.51
2019-02-19T05:24:42.124Z,-0.33
2019-02-19T05:29:46.181Z,-0.31
2019-02-19T05:34:50.224Z,-0.27
2019-02-19T05:39:54.384Z,-0.08
2019-02-19T05:44:58.466Z,-0.02
2019-02-19T05:50:03.010Z,0.00
2019-02-19T05:55:07.193Z,0.05
2019-02-19T06:05:47.870Z,0.16
2019-02-19T06:10:51.961Z,0.32
2019-02-19T06:15:56.349Z,0.48
2019-02-19T06:21:06.411Z,0.60
2019-02-19T06:26:10.486Z,0.74
2019-02-19T06:31:20.348Z,1.09
2019-02-19T06:36:24.768Z,1.32
2019-02-19T06:41:29.092Z,1.45
2019-02-19T06:46:33.213Z,1.56
2019-02-19T06:51:41.047Z,1.67
2019-02-19T06:56:45.139Z,1.90
2019-02-19T07:01:49.496Z,2.09
2019-02-19T07:12:10.938Z,2.55
2019-02-19T07:17:15.979Z,2.91
2019-02-19T07:22:26.585Z,3.34
2019-02-19T07:27:30.644Z,3.66
2019-02-19T07:38:10.752Z,4.13
2019-02-19T07:43:14.851Z,4.42
2019-02-19T07:48:18.927Z,4.67
2019-02-19T07:53:22.961Z,4.87
2019-02-19T07:58:27.004Z,5.27
2019-02-19T08:03:31.218Z,5.53
2019-02-19T08:08:35.324Z,5.94
2019-02-19T08:13:39.358Z,6.33
2019-02-19T08:18:43.390Z,6.88
2019-02-19T08:23:47.429Z,7.23
2019-02-19T08:28:51.493Z,7.60
2019-02-19T08:33:55.520Z,7.95
2019-02-19T08:38:59.523Z,8.44
2019-02-19T08:44:03.645Z,8.65
2019-02-19T08:49:07.721Z,8.80
2019-02-19T08:54:11.746Z,8.94
2019-02-19T08:59:15.821Z,8.99
2019-02-19T09:04:19.938Z,9.24
2019-02-19T09:09:24.000Z,9.41
2019-02-19T09:14:47.036Z,9.34
2019-02-19T09:19:51.169Z,9.35
2019-02-19T09:24:57.702Z,9.95
2019-02-19T09:30:01.747Z,9.95
2019-02-19T09:41:00.964Z,9.91
2019-02-19T09:46:05.010Z,9.91
2019-02-19T09:51:09.110Z,10.06
2019-02-19T09:56:13.198Z,10.40
2019-02-19T10:01:17.258Z,10.54
2019-02-19T10:06:21.316Z,10.34
2019-02-19T10:11:27.073Z,10.15
2019-02-19T10:16:31.172Z,10.06
2019-02-19T10:26:55.719Z,10.20
2019-02-19T10:32:01.473Z,10.29
2019-02-19T10:37:07.304Z,10.16
2019-02-19T10:42:11.381Z,9.98
2019-02-19T10:47:15.452Z,9.96
2019-02-19T10:52:19.537Z,9.82
2019-02-19T10:57:23.574Z,9.68
2019-02-19T11:02:27.967Z,9.82
2019-02-19T11:07:32.089Z,9.87
2019-02-19T11:12:36.179Z,10.22
2019-02-19T11:17:40.578Z,10.35
2019-02-19T11:22:45.106Z,10.70
2019-02-19T11:27:49.342Z,10.71
2019-02-19T11:32:53.502Z,10.97
2019-02-19T11:37:57.575Z,10.80
2019-02-19T11:43:01.773Z,10.82
2019-02-19T11:48:06.519Z,10.77
2019-02-19T11:53:10.682Z,10.54
2019-02-19T11:58:15.174Z,10.25
2019-02-19T12:03:19.232Z,10.22
2019-02-19T12:08:23.247Z,10.12
2019-02-19T12:13:27.305Z,10.09
2019-02-19T12:18:31.711Z,10.25
2019-02-19T12:23:35.823Z,10.78
2019-02-19T12:28:47.692Z,10.76
2019-02-19T12:33:52.058Z,10.94
2019-02-19T12:38:56.144Z,11.20
2019-02-19T12:49:37.267Z,11.12
2019-02-19T12:55:00.363Z,10.97
2019-02-19T13:05:59.775Z,10.68
2019-02-19T13:16:40.222Z,10.84
2019-02-19T13:21:44.256Z,11.08
2019-02-19T13:26:48.774Z,11.14
2019-02-19T13:31:53.360Z,11.18
2019-02-19T13:36:57.949Z,10.79
2019-02-19T13:42:02.063Z,10.74
2019-02-19T13:47:06.254Z,10.79
2019-02-19T13:52:10.388Z,10.85
2019-02-19T13:57:15.629Z,10.56
2019-02-19T14:02:19.974Z,10.32
2019-02-19T14:07:24.162Z,10.41
2019-02-19T14:12:28.191Z,10.57
2019-02-19T14:17:32.529Z,10.73
2019-02-19T14:22:38.762Z,10.55
2019-02-19T14:27:43.115Z,10.41
2019-02-19T14:32:47.432Z,11.01
2019-02-19T14:37:51.490Z,11.35
2019-02-19T14:42:55.606Z,11.26
2019-02-19T14:47:59.921Z,11.19
2019-02-19T14:53:04.034Z,11.17
2019-02-19T14:58:08.119Z,10.94
2019-02-19T15:03:12.293Z,10.54
2019-02-19T15:08:16.555Z,10.48
2019-02-19T15:13:21.753Z,10.25
2019-02-19T15:18:25.848Z,10.14
2019-02-19T15:23:31.482Z,9.92
2019-02-19T15:28:35.610Z,9.84
2019-02-19T15:33:39.730Z,9.83
2019-02-19T15:38:43.923Z,9.66
2019-02-19T15:43:48.021Z,9.63
2019-02-19T15:48:52.194Z,9.54
2019-02-19T15:53:56.682Z,9.36
2019-02-19T15:59:01.926Z,9.28
2019-02-19T16:04:06.016Z,9.30
2019-02-19T16:09:10.116Z,9.22
2019-02-19T16:14:16.612Z,9.08
2019-02-19T16:19:20.130Z,9.08
2019-02-19T16:24:24.254Z,9.09
2019-02-19T16:29:28.389Z,8.96
2019-02-19T16:34:32.605Z,8.87
2019-02-19T16:39:36.669Z,8.78
2019-02-19T16:44:40.798Z,8.87
2019-02-19T16:49:44.971Z,8.95
2019-02-19T16:54:49.065Z,8.80
2019-02-19T16:59:53.181Z,8.92
2019-02-19T17:04:57.246Z,8.77
2019-02-19T17:10:01.461Z,8.77
2019-02-19T17:15:06.348Z,8.69
2019-02-19T17:20:26.482Z,8.72
2019-02-19T17:25:16.781Z,8.75
2019-02-19T17:30:22.283Z,8.72
2019-02-19T17:35:26.730Z,8.73
2019-02-19T17:40:31.062Z,8.79
2019-02-19T17:45:35.478Z,8.69
2019-02-19T17:50:39.708Z,8.69
2019-02-19T17:55:44.046Z,8.67
2019-02-19T18:00:48.504Z,8.56
2019-02-19T18:05:52.769Z,8.51
2019-02-19T18:10:57.275Z,8.51
2019-02-19T18:16:01.521Z,8.54
2019-02-19T18:21:05.752Z,8.55
2019-02-19T18:26:09.892Z,8.55
2019-02-19T18:31:14.242Z,8.67
2019-02-19T18:36:19.616Z,8.62
2019-02-19T18:41:24.370Z,8.66
2019-02-19T18:46:28.529Z,8.67
2019-02-19T18:51:33.048Z,8.62
2019-02-19T18:56:37.248Z,8.59
2019-02-19T19:01:41.424Z,8.52
2019-02-19T19:06:45.525Z,8.48
2019-02-19T19:11:49.728Z,8.57
2019-02-19T19:16:53.779Z,8.73
2019-02-19T19:21:57.865Z,8.62
2019-02-19T19:27:01.917Z,8.60
2019-02-19T19:32:06.021Z,8.57
2019-02-19T19:42:25.961Z,8.67
2019-02-19T19:47:30.209Z,8.62
2019-02-19T19:52:58.423Z,8.44
2019-02-19T20:09:34.839Z,6.08
2019-02-19T20:20:40.352Z,5.92
2019-02-19T20:37:10.611Z,5.92
2019-02-19T20:48:13.087Z,5.88
2019-02-19T20:58:38.756Z,5.40
2019-02-19T21:03:44.943Z,5.36
2019-02-19T21:14:18.407Z,5.61
2019-02-19T21:19:22.670Z,5.83
2019-02-19T21:30:01.311Z,5.68
2019-02-19T21:35:26.014Z,5.56
2019-02-19T21:40:31.826Z,5.35
2019-02-19T21:45:37.593Z,5.09
2019-02-19T21:50:43.386Z,5.06
2019-02-19T21:55:47.425Z,4.96
2019-02-19T22:00:53.265Z,4.81
2019-02-19T22:05:59.090Z,4.90
2019-02-19T22:11:04.824Z,4.93
2019-02-19T22:16:27.890Z,4.82
2019-02-19T22:21:31.975Z,4.60
2019-02-19T22:31:51.440Z,4.50
2019-02-19T22:36:55.469Z,4.53
2019-02-19T22:41:59.510Z,4.40
2019-02-19T22:47:03.603Z,4.52
2019-02-19T22:52:12.521Z,4.58
2019-02-19T22:57:19.447Z,4.70
2019-02-19T23:02:23.793Z,4.81
2019-02-19T23:07:28.203Z,4.93
2019-02-19T23:12:32.306Z,5.02
2019-02-19T23:17:36.437Z,5.01
2019-02-19T23:22:40.527Z,5.09
2019-02-19T23:27:45.012Z,5.22
2019-02-19T23:32:49.444Z,5.24
2019-02-19T23:38:14.194Z,5.29
2019-02-19T23:48:33.858Z,5.34
2019-02-19T23:53:56.966Z,5.54
2019-02-19T23:59:20.227Z,5.62
